Time;durP1;ratioP1;P1;durP2;ratioP2;P2;SDS_P1;SDS_P2;PMS_P1;PMS_P2;Temp;Humidity;BMP_temperature;BMP_pressure;BME280_temperature;BME280_humidity;BME280_pressure;Samples;Min_cycle;Max_cycle;Signal;HPM_P1;HPM_P2
2022/03/05 00:00:25;;;;;;;19.63;8.80;;;;;;;-1.35;52.53;95764.13;5000046;28;20114;-57
2022/03/05 00:02:50;;;;;;;21.10;9.65;;;;;;;-1.37;52.44;95766.84;4996161;28;20125;-58
2022/03/05 00:05:16;;;;;;;20.00;9.40;;;;;;;-1.37;51.93;95761.63;5002839;28;20074;-58
2022/03/05 00:07:41;;;;;;;22.65;11.55;;;;;;;-1.62;50.07;95762.38;5002798;28;20117;-57
2022/03/05 00:10:07;;;;;;;24.65;11.50;;;;;;;-1.53;51.57;95760.94;4987427;28;20555;-58
2022/03/05 00:12:32;;;;;;;20.63;9.50;;;;;;;-1.47;51.32;95756.16;5043570;28;20116;-58
2022/03/05 00:14:58;;;;;;;20.60;10.05;;;;;;;-1.48;51.45;95751.88;5027761;28;20105;-59
2022/03/05 00:17:23;;;;;;;23.58;9.95;;;;;;;-1.50;51.48;95756.34;5039829;28;20074;-59
2022/03/05 00:19:49;;;;;;;21.52;10.13;;;;;;;-1.50;52.36;95753.72;5012572;28;20102;-58
2022/03/05 00:22:14;;;;;;;22.48;10.20;;;;;;;-1.62;51.69;95754.53;4994459;28;20091;-59
2022/03/05 00:24:39;;;;;;;20.48;9.45;;;;;;;-1.50;52.51;95755.50;4987565;28;20291;-58
2022/03/05 00:27:05;;;;;;;20.73;9.43;;;;;;;-1.49;51.69;95744.94;5002345;28;20114;-59
2022/03/05 00:29:30;;;;;;;20.77;9.85;;;;;;;-1.56;51.82;95755.91;4992729;28;20460;-59
2022/03/05 00:31:56;;;;;;;23.20;9.68;;;;;;;-1.57;52.58;95755.06;4999665;28;20172;-57
2022/03/05 00:34:21;;;;;;;19.58;8.95;;;;;;;-1.52;52.42;95758.19;4994234;28;20101;-59
2022/03/05 00:36:47;;;;;;;22.67;9.02;;;;;;;-1.57;52.50;95752.44;5003451;28;20090;-58
2022/03/05 00:39:12;;;;;;;20.73;9.20;;;;;;;-1.62;51.31;95747.50;5007338;28;20116;-58
2022/03/05 00:41:38;;;;;;;17.17;9.05;;;;;;;-1.64;52.82;95748.56;5024124;28;20078;-58
2022/03/05 00:44:04;;;;;;;22.52;8.88;;;;;;;-1.62;52.84;95751.91;5004528;28;20160;-58
2022/03/05 00:46:29;;;;;;;26.23;10.82;;;;;;;-1.84;50.42;95755.88;5018038;28;20181;-59
2022/03/05 00:48:54;;;;;;;21.30;9.60;;;;;;;-1.79;52.97;95755.59;5011052;28;20303;-58
2022/03/05 00:51:20;;;;;;;18.48;8.65;;;;;;;-1.74;52.95;95756.97;5023618;28;20385;-58
2022/03/05 00:53:45;;;;;;;19.90;9.38;;;;;;;-1.74;52.50;95756.13;5021636;28;20595;-60
2022/03/05 00:56:11;;;;;;;20.50;8.93;;;;;;;-1.72;53.02;95754.28;5023386;28;20112;-58
2022/03/05 00:58:36;;;;;;;21.90;10.00;;;;;;;-1.84;51.48;95750.66;5010756;28;20110;-59
2022/03/05 01:01:01;;;;;;;18.42;8.02;;;;;;;-1.70;52.41;95752.41;5016489;28;20086;-58
2022/03/05 01:03:27;;;;;;;19.98;8.80;;;;;;;-1.67;52.69;95754.81;5012164;28;20587;-60
2022/03/05 01:05:53;;;;;;;20.95;9.27;;;;;;;-1.78;52.36;95747.69;5021633;28;20078;-58
2022/03/05 01:08:19;;;;;;;18.45;9.43;;;;;;;-1.83;53.07;95754.13;5020364;28;20179;-58
2022/03/05 01:10:44;;;;;;;24.00;9.63;;;;;;;-1.84;53.22;95748.06;5022998;28;20139;-60
2022/03/05 01:13:10;;;;;;;19.27;8.55;;;;;;;-1.79;53.48;95748.63;5021681;28;20084;-60
2022/03/05 01:15:35;;;;;;;21.38;9.63;;;;;;;-1.86;53.47;95747.31;5023164;28;20652;-59
2022/03/05 01:18:01;;;;;;;19.40;8.15;;;;;;;-1.81;53.27;95741.78;5017700;28;20510;-59
2022/03/05 01:20:26;;;;;;;18.88;8.38;;;;;;;-1.86;53.68;95744.72;5015771;28;20106;-59
2022/03/05 01:22:52;;;;;;;20.33;9.43;;;;;;;-2.08;52.66;95734.78;5017369;28;20428;-59
2022/03/05 01:25:17;;;;;;;20.17;9.35;;;;;;;-2.04;53.30;95737.09;5014360;28;20089;-58
2022/03/05 01:27:43;;;;;;;16.88;8.10;;;;;;;-1.90;54.25;95733.63;5008648;28;20109;-60
2022/03/05 01:30:09;;;;;;;19.33;8.85;;;;;;;-2.00;53.87;95733.34;5013480;28;20453;-60
2022/03/05 01:32:34;;;;;;;23.17;9.48;;;;;;;-2.00;52.78;95725.53;5010746;28;20097;-60
2022/03/05 01:34:59;;;;;;;17.63;8.98;;;;;;;-1.96;53.69;95733.16;5022249;28;20133;-59
2022/03/05 01:37:25;;;;;;;18.60;8.98;;;;;;;-1.94;53.58;95728.72;5012174;28;20088;-59
2022/03/05 01:39:50;;;;;;;20.20;9.43;;;;;;;-2.02;51.86;95730.03;5022052;28;20117;-59
2022/03/05 01:42:22;;;;;;;21.42;9.18;;;;;;;-1.99;53.43;95731.59;5013970;28;20542;-55
2022/03/05 01:44:47;;;;;;;17.20;8.35;;;;;;;-1.90;53.22;95730.19;5018271;28;20078;-58
2022/03/05 01:47:13;;;;;;;19.60;8.38;;;;;;;-1.86;53.44;95723.84;5013401;28;20890;-58
2022/03/05 01:49:38;;;;;;;19.60;9.80;;;;;;;-2.00;52.60;95727.31;5017307;28;20081;-60
2022/03/05 01:52:03;;;;;;;18.17;8.45;;;;;;;-1.92;53.64;95724.22;5012772;28;20113;-57
2022/03/05 01:54:29;;;;;;;16.30;7.50;;;;;;;-1.85;53.87;95717.66;5022366;28;20109;-59
2022/03/05 01:56:55;;;;;;;16.88;8.02;;;;;;;-1.89;53.49;95708.38;5022408;28;20483;-58
2022/03/05 01:59:20;;;;;;;22.50;9.38;;;;;;;-2.00;53.66;95720.31;5009074;28;20106;-59
2022/03/05 02:01:46;;;;;;;19.98;8.98;;;;;;;-2.05;53.14;95726.75;5009006;28;20571;-59
2022/03/05 02:04:11;;;;;;;23.90;9.45;;;;;;;-2.12;52.60;95728.91;5021423;28;20113;-59
2022/03/05 02:06:37;;;;;;;15.90;7.65;;;;;;;-1.93;54.06;95730.38;5019303;28;20418;-58
2022/03/05 02:09:02;;;;;;;16.15;7.35;;;;;;;-1.92;53.77;95724.22;5013840;28;20073;-60
2022/03/05 02:11:28;;;;;;;19.52;9.38;;;;;;;-2.00;52.00;95722.91;5013743;28;20105;-60
2022/03/05 02:13:53;;;;;;;20.25;10.23;;;;;;;-2.09;52.65;95717.44;5017820;28;20144;-61
2022/03/05 02:16:19;;;;;;;15.68;7.70;;;;;;;-1.97;54.38;95721.88;5021328;28;20259;-60
2022/03/05 02:18:46;;;;;;;14.93;7.57;;;;;;;-1.92;53.59;95721.59;5022028;28;20106;-60
2022/03/05 02:21:12;;;;;;;15.80;7.53;;;;;;;-1.91;53.73;95718.06;5020980;28;20078;-59
2022/03/05 02:23:37;;;;;;;18.00;7.85;;;;;;;-1.92;54.21;95713.78;5008866;28;20822;-58
2022/03/05 02:26:03;;;;;;;19.98;8.52;;;;;;;-1.92;54.02;95725.06;5019356;28;20098;-59
2022/03/05 02:28:29;;;;;;;18.88;8.75;;;;;;;-1.93;54.08;95715.53;5011744;28;20339;-59
2022/03/05 02:30:54;;;;;;;21.40;9.05;;;;;;;-1.93;53.67;95717.31;5015082;28;20245;-59
2022/03/05 02:33:20;;;;;;;22.83;9.82;;;;;;;-2.02;53.49;95719.59;5016073;28;20539;-58
2022/03/05 02:35:45;;;;;;;17.52;8.43;;;;;;;-2.01;53.19;95726.47;5016576;28;20102;-59
2022/03/05 02:38:16;;;;;;;18.08;7.95;;;;;;;-1.92;54.02;95714.63;5007698;28;20091;-60
2022/03/05 02:40:41;;;;;;;17.58;8.35;;;;;;;-1.98;53.24;95721.06;4989760;28;20177;-59
2022/03/05 02:43:07;;;;;;;18.15;8.80;;;;;;;-2.03;53.97;95720.50;5006082;28;20528;-60
2022/03/05 02:45:33;;;;;;;18.88;8.40;;;;;;;-1.95;53.77;95720.03;4994883;28;20093;-56
2022/03/05 02:47:58;;;;;;;17.17;7.75;;;;;;;-1.90;54.11;95717.13;5002978;28;20563;-57
2022/03/05 02:50:23;;;;;;;14.38;7.15;;;;;;;-1.90;54.03;95719.75;4996668;28;20105;-56
2022/03/05 02:52:49;;;;;;;14.07;7.35;;;;;;;-1.96;54.01;95712.28;5002708;28;20089;-57
2022/03/05 02:55:15;;;;;;;13.95;7.20;;;;;;;-1.95;54.26;95720.03;5000019;28;20109;-55
2022/03/05 02:57:40;;;;;;;16.50;7.75;;;;;;;-2.00;54.01;95717.69;5006300;28;20094;-60
2022/03/05 03:00:06;;;;;;;15.77;6.95;;;;;;;-1.91;53.97;95715.44;5017371;28;20468;-59
2022/03/05 03:02:31;;;;;;;16.30;8.45;;;;;;;-2.10;52.39;95721.84;5026911;28;20097;-59
2022/03/05 03:04:57;;;;;;;16.70;8.23;;;;;;;-2.01;53.60;95725.63;5029531;28;20082;-58
2022/03/05 03:07:22;;;;;;;19.27;8.20;;;;;;;-1.95;53.87;95727.84;5010294;28;20498;-60
2022/03/05 03:09:47;;;;;;;17.77;7.90;;;;;;;-1.99;54.55;95729.00;4988605;28;20087;-59
2022/03/05 03:12:13;;;;;;;14.80;7.35;;;;;;;-1.95;54.21;95729.63;4998734;28;20106;-59
2022/03/05 03:14:38;;;;;;;21.30;9.02;;;;;;;-2.05;54.21;95727.59;5001200;28;20748;-59
2022/03/05 03:17:04;;;;;;;14.65;7.30;;;;;;;-1.93;53.98;95722.53;4998803;28;20086;-59
2022/03/05 03:19:29;;;;;;;16.98;7.55;;;;;;;-1.96;54.53;95726.19;5003477;28;20129;-60
2022/03/05 03:21:54;;;;;;;17.20;8.15;;;;;;;-1.95;54.18;95722.63;5005436;28;20101;-59
2022/03/05 03:24:20;;;;;;;18.67;8.07;;;;;;;-1.94;54.35;95720.88;4992493;28;20557;-59
2022/03/05 03:26:45;;;;;;;17.58;8.77;;;;;;;-1.92;53.51;95724.22;5005455;28;20148;-59
2022/03/05 03:29:11;;;;;;;18.75;7.53;;;;;;;-1.94;54.36;95726.09;4991150;28;20097;-60
2022/03/05 03:31:37;;;;;;;14.98;7.68;;;;;;;-2.01;54.10;95726.47;5005694;28;20106;-59
2022/03/05 03:34:02;;;;;;;19.35;8.68;;;;;;;-2.03;53.95;95727.50;4992566;28;20109;-59
2022/03/05 03:36:28;;;;;;;20.65;8.73;;;;;;;-2.07;53.58;95721.63;5005578;28;20114;-59
2022/03/05 03:38:53;;;;;;;17.13;7.38;;;;;;;-2.00;54.20;95722.91;5002424;28;20113;-60
2022/03/05 03:41:19;;;;;;;15.65;7.88;;;;;;;-2.01;54.30;95723.88;5005556;28;20085;-59
2022/03/05 03:43:44;;;;;;;15.65;7.03;;;;;;;-2.04;54.36;95728.44;4992910;28;20106;-60
2022/03/05 03:46:10;;;;;;;14.77;6.97;;;;;;;-2.01;54.13;95728.22;5004479;28;20502;-60
2022/03/05 03:48:35;;;;;;;18.48;6.85;;;;;;;-1.98;54.31;95728.03;4993840;28;20107;-59
2022/03/05 03:51:01;;;;;;;18.17;7.75;;;;;;;-2.02;54.25;95718.75;4994396;28;20106;-56
2022/03/05 03:53:26;;;;;;;18.13;8.18;;;;;;;-2.13;54.38;95725.47;4999710;28;20097;-56
2022/03/05 03:55:51;;;;;;;15.02;7.40;;;;;;;-2.14;53.15;95723.78;5020236;28;20164;-58
2022/03/05 03:58:17;;;;;;;14.55;7.18;;;;;;;-2.11;54.53;95722.75;5030965;28;20158;-58
2022/03/05 04:00:43;;;;;;;15.10;7.63;;;;;;;-2.12;54.50;95721.09;5039011;28;20101;-59
2022/03/05 04:03:08;;;;;;;15.57;7.43;;;;;;;-2.15;54.31;95724.72;5016505;28;20110;-60
2022/03/05 04:05:33;;;;;;;16.25;7.82;;;;;;;-2.24;54.64;95720.91;5001050;28;20075;-59
2022/03/05 04:10:43;;;;;;;16.98;7.43;;;;;;;-2.21;54.51;95729.50;5001410;28;20401;-59
2022/03/05 04:13:08;;;;;;;14.45;7.03;;;;;;;-2.22;53.23;95730.41;4995113;28;20353;-60
2022/03/05 04:15:34;;;;;;;15.55;6.93;;;;;;;-2.24;54.56;95731.34;5003462;28;20156;-59
2022/03/05 04:17:59;;;;;;;15.95;6.80;;;;;;;-2.24;53.81;95733.16;5004835;28;20517;-60
2022/03/05 04:20:24;;;;;;;14.15;7.05;;;;;;;-2.25;54.90;95732.28;5011861;28;20200;-61
2022/03/05 04:22:50;;;;;;;16.27;7.18;;;;;;;-2.22;54.97;95730.41;5029407;28;20093;-59
2022/03/05 04:25:15;;;;;;;16.02;7.20;;;;;;;-2.25;55.07;95729.69;5010934;28;20085;-61
2022/03/05 04:27:41;;;;;;;14.85;6.95;;;;;;;-2.25;55.13;95734.91;5024204;28;20114;-59
2022/03/05 04:30:07;;;;;;;17.48;8.20;;;;;;;-2.24;54.73;95728.75;5022300;28;20078;-60
2022/03/05 04:32:32;;;;;;;16.85;8.10;;;;;;;-2.22;54.96;95728.66;5024337;28;20227;-60
2022/03/05 04:34:57;;;;;;;14.40;6.22;;;;;;;-2.18;54.61;95731.91;5022446;28;20114;-55
2022/03/05 04:37:23;;;;;;;16.05;7.28;;;;;;;-2.19;54.67;95731.06;5011204;28;20102;-57
2022/03/05 04:39:48;;;;;;;18.10;7.72;;;;;;;-2.20;54.43;95728.56;4999348;28;20110;-55
2022/03/05 04:42:14;;;;;;;19.20;8.80;;;;;;;-2.20;54.78;95739.00;4991598;28;20083;-59
2022/03/05 04:44:39;;;;;;;15.00;7.97;;;;;;;-2.19;54.26;95738.91;5004318;28;20075;-60
2022/03/05 04:47:04;;;;;;;14.60;7.00;;;;;;;-2.19;55.17;95733.69;4993026;28;20549;-58
2022/03/05 04:49:30;;;;;;;15.43;7.47;;;;;;;-2.19;54.92;95741.50;5000778;28;20086;-58
2022/03/05 04:51:55;;;;;;;16.90;8.25;;;;;;;-2.15;54.35;95736.94;5005262;28;20110;-58
2022/03/05 04:54:21;;;;;;;14.40;6.78;;;;;;;-2.17;54.44;95742.25;5023555;28;20090;-57
2022/03/05 04:56:46;;;;;;;19.25;8.27;;;;;;;-2.22;55.02;95740.84;5010683;28;20102;-58
2022/03/05 04:59:11;;;;;;;18.15;8.35;;;;;;;-2.21;54.31;95745.97;5023320;28;20478;-58
2022/03/05 05:01:37;;;;;;;15.50;8.00;;;;;;;-2.15;54.67;95747.38;5020987;28;20878;-59
2022/03/05 05:04:02;;;;;;;18.38;7.82;;;;;;;-2.20;55.21;95747.66;5021121;28;20572;-57
2022/03/05 05:06:28;;;;;;;15.13;8.05;;;;;;;-2.22;54.89;95748.66;5017005;28;20106;-59
2022/03/05 05:08:54;;;;;;;19.73;8.32;;;;;;;-2.16;54.71;95753.53;5016328;28;20086;-58
2022/03/05 05:11:19;;;;;;;17.92;9.50;;;;;;;-2.26;54.75;95755.88;5020637;28;20137;-59
2022/03/05 05:13:45;;;;;;;16.98;8.55;;;;;;;-2.22;55.22;95759.97;5023822;28;20151;-59
2022/03/05 05:16:10;;;;;;;15.27;7.93;;;;;;;-2.19;54.58;95754.56;5021218;28;20105;-58
2022/03/05 05:18:36;;;;;;;20.02;9.88;;;;;;;-2.26;54.25;95756.72;5021702;28;20129;-59
2022/03/05 05:21:01;;;;;;;19.83;9.65;;;;;;;-2.32;54.33;95759.69;5021502;28;20078;-60
2022/03/05 05:23:26;;;;;;;17.15;8.13;;;;;;;-2.19;54.62;95756.31;5022963;28;20125;-59
2022/03/05 05:25:52;;;;;;;18.98;9.07;;;;;;;-2.23;54.35;95760.91;5010277;28;20090;-59
2022/03/05 05:28:17;;;;;;;16.75;7.60;;;;;;;-2.19;54.70;95759.78;5022591;28;20279;-58
2022/03/05 05:30:43;;;;;;;15.52;6.78;;;;;;;-2.20;54.55;95762.47;5012190;28;20102;-58
2022/03/05 05:33:08;;;;;;;14.32;6.60;;;;;;;-2.21;55.11;95759.00;5020378;28;20090;-58
2022/03/05 05:35:34;;;;;;;16.80;7.43;;;;;;;-2.22;55.07;95762.56;5013693;28;20120;-58
2022/03/05 05:37:59;;;;;;;16.58;8.35;;;;;;;-2.28;54.80;95765.53;5016638;28;20113;-60
2022/03/05 05:40:24;;;;;;;22.83;10.00;;;;;;;-2.34;54.57;95765.94;5017304;28;20541;-58
2022/03/05 05:42:50;;;;;;;18.77;8.85;;;;;;;-2.45;54.98;95770.03;5016581;28;20098;-59
2022/03/05 05:45:15;;;;;;;18.60;7.93;;;;;;;-2.39;54.38;95774.03;5015831;28;20446;-58
2022/03/05 05:47:41;;;;;;;20.25;9.13;;;;;;;-2.44;54.85;95770.88;5022458;28;20102;-56
2022/03/05 05:50:07;;;;;;;20.17;7.97;;;;;;;-2.32;54.80;95775.34;5009844;28;20086;-57
2022/03/05 05:52:32;;;;;;;17.73;8.85;;;;;;;-2.38;54.75;95773.94;5042661;28;20129;-56
2022/03/05 05:54:58;;;;;;;20.13;9.07;;;;;;;-2.46;54.87;95772.72;5011686;28;20121;-56
2022/03/05 05:57:23;;;;;;;21.63;11.00;;;;;;;-2.68;53.26;95768.81;4984727;28;20113;-56
2022/03/05 05:59:49;;;;;;;17.85;7.40;;;;;;;-2.44;54.91;95776.09;4996632;28;20613;-57
2022/03/05 06:02:14;;;;;;;15.77;7.93;;;;;;;-2.41;53.88;95773.31;4999071;28;20082;-59
2022/03/05 06:04:40;;;;;;;13.82;6.65;;;;;;;-2.33;54.56;95778.88;4993567;28;20128;-58
2022/03/05 06:07:05;;;;;;;14.05;6.88;;;;;;;-2.31;54.61;95777.00;5000323;28;20451;-59
2022/03/05 06:09:31;;;;;;;14.27;6.50;;;;;;;-2.32;55.02;95780.56;4999401;28;20082;-57
2022/03/05 06:11:56;;;;;;;10.98;6.07;;;;;;;-2.33;54.89;95778.88;5002110;28;20126;-60
2022/03/05 06:14:21;;;;;;;12.27;6.10;;;;;;;-2.32;54.43;95780.56;4991000;28;20157;-57
2022/03/05 06:16:47;;;;;;;12.27;7.18;;;;;;;-2.32;55.04;95782.31;5022215;28;20078;-60
2022/03/05 06:19:12;;;;;;;13.15;6.95;;;;;;;-2.34;54.70;95777.22;5004621;28;20372;-59
2022/03/05 06:21:38;;;;;;;15.55;7.72;;;;;;;-2.30;54.84;95776.09;5016243;28;20094;-58
2022/03/05 06:24:04;;;;;;;15.10;7.05;;;;;;;-2.28;54.42;95782.03;5014085;28;20125;-58
2022/03/05 06:26:31;;;;;;;16.52;7.88;;;;;;;-2.28;55.10;95781.19;5017445;28;20148;-56
2022/03/05 06:28:57;;;;;;;14.27;7.15;;;;;;;-2.25;54.72;95774.03;4996320;28;20285;-57
2022/03/05 06:31:23;;;;;;;18.42;8.07;;;;;;;-2.25;54.84;95781.00;5019979;28;20467;-59
2022/03/05 06:33:48;;;;;;;15.68;8.73;;;;;;;-2.25;54.13;95784.47;5022327;28;20082;-58
2022/03/05 06:36:14;;;;;;;14.48;7.70;;;;;;;-2.17;54.67;95783.97;5020312;28;20168;-61
2022/03/05 06:38:39;;;;;;;13.18;6.82;;;;;;;-2.08;54.40;95785.19;5021654;28;20105;-60
2022/03/05 06:41:05;;;;;;;13.27;6.80;;;;;;;-1.99;54.16;95781.19;5022075;28;20092;-58
2022/03/05 06:43:30;;;;;;;14.35;7.10;;;;;;;-1.92;54.05;95789.47;5008155;28;20101;-58
2022/03/05 06:45:56;;;;;;;15.65;7.90;;;;;;;-1.86;54.13;95781.25;5016809;28;20082;-58
2022/03/05 06:48:21;;;;;;;16.98;7.20;;;;;;;-1.77;53.03;95783.28;5008627;28;20172;-59
2022/03/05 06:50:46;;;;;;;15.63;7.93;;;;;;;-1.68;53.81;95789.69;5011979;28;20192;-58
2022/03/05 06:53:12;;;;;;;15.32;7.03;;;;;;;-1.61;52.89;95787.53;5010207;28;20167;-60
2022/03/05 06:55:37;;;;;;;15.93;7.45;;;;;;;-1.53;53.50;95792.28;5011658;28;20118;-59
2022/03/05 06:58:03;;;;;;;15.25;7.80;;;;;;;-1.43;52.71;95795.13;5017463;28;20078;-60
2022/03/05 07:00:28;;;;;;;19.05;8.90;;;;;;;-1.41;51.03;95793.25;5014254;28;20124;-59
2022/03/05 07:02:54;;;;;;;17.88;9.90;;;;;;;-1.48;50.48;95804.09;5010137;28;20743;-60
2022/03/05 07:05:19;;;;;;;16.65;9.10;;;;;;;-1.38;52.41;95804.34;5013795;28;20078;-59
2022/03/05 07:07:45;;;;;;;18.00;9.95;;;;;;;-1.37;50.42;95799.94;4998843;28;20192;-58
2022/03/05 07:10:10;;;;;;;21.00;9.32;;;;;;;-1.41;49.76;95801.09;5005598;28;20232;-58
2022/03/05 07:12:36;;;;;;;18.23;9.02;;;;;;;-1.13;51.49;95805.38;5004757;28;20458;-59
2022/03/05 07:15:01;;;;;;;16.48;8.68;;;;;;;-1.02;50.92;95807.28;5016032;28;20263;-60
2022/03/05 07:17:27;;;;;;;17.08;9.15;;;;;;;-0.99;49.86;95803.59;5013189;28;20154;-59
2022/03/05 07:19:54;;;;;;;17.42;9.07;;;;;;;-0.95;49.56;95803.34;5016908;28;20547;-61
2022/03/05 07:22:19;;;;;;;14.15;7.43;;;;;;;-0.60;50.18;95806.34;5015169;28;20646;-59
2022/03/05 07:24:45;;;;;;;18.95;10.45;;;;;;;-0.52;49.33;95813.66;5009038;28;20180;-61
2022/03/05 07:27:10;;;;;;;17.50;9.65;;;;;;;-0.47;47.39;95809.78;5017114;28;20541;-61
2022/03/05 07:29:36;;;;;;;14.63;8.23;;;;;;;-0.25;49.06;95807.47;5014406;28;20583;-61
2022/03/05 07:32:03;;;;;;;17.80;10.35;;;;;;;-0.29;47.82;95811.25;5016366;28;20132;-62
2022/03/05 07:34:29;;;;;;;15.68;8.30;;;;;;;-0.06;48.85;95810.50;5020357;28;20104;-60
2022/03/05 07:36:55;;;;;;;15.85;8.85;;;;;;;0.05;48.33;95812.38;5020707;28;20136;-62
2022/03/05 07:39:20;;;;;;;15.70;8.82;;;;;;;0.16;46.84;95806.41;4999008;28;20114;-61
2022/03/05 07:41:46;;;;;;;17.40;8.98;;;;;;;0.27;47.61;95810.03;4996031;28;20085;-60
2022/03/05 07:44:11;;;;;;;16.45;9.38;;;;;;;0.25;45.69;95820.63;4992331;28;20107;-63
2022/03/05 07:46:37;;;;;;;17.52;10.00;;;;;;;0.58;47.07;95813.09;4994180;28;20106;-60
2022/03/05 07:49:03;;;;;;;15.55;9.32;;;;;;;0.73;47.62;95811.13;4986342;28;20091;-60
2022/03/05 07:51:28;;;;;;;17.83;8.85;;;;;;;0.81;46.57;95808.78;4999801;28;20110;-61
2022/03/05 07:53:53;;;;;;;17.02;9.93;;;;;;;0.93;44.97;95814.09;5001144;28;20090;-59
2022/03/05 07:56:19;;;;;;;18.00;9.68;;;;;;;1.08;45.61;95810.34;4990378;28;20133;-59
2022/03/05 07:58:46;;;;;;;17.48;10.07;;;;;;;1.03;43.85;95812.47;4999949;28;20270;-61
2022/03/05 08:01:11;;;;;;;19.92;10.55;;;;;;;0.97;42.49;95812.91;5000505;28;20467;-60
2022/03/05 08:03:36;;;;;;;15.40;8.55;;;;;;;1.03;43.67;95817.72;4997247;28;20417;-59
2022/03/05 08:06:02;;;;;;;18.02;9.75;;;;;;;1.19;42.12;95821.81;5000582;28;20093;-57
2022/03/05 08:08:27;;;;;;;15.63;9.27;;;;;;;1.15;43.52;95815.09;4998408;28;20106;-58
2022/03/05 08:10:54;;;;;;;17.77;9.32;;;;;;;1.33;44.03;95819.00;4995393;28;20602;-58
2022/03/05 08:13:19;;;;;;;17.20;9.20;;;;;;;1.37;44.19;95824.84;4998545;28;20377;-56
2022/03/05 08:15:45;;;;;;;21.45;9.55;;;;;;;1.74;42.81;95837.03;4993369;28;20523;-60
2022/03/05 08:18:10;;;;;;;16.92;10.07;;;;;;;1.68;42.43;95827.81;4990510;28;20332;-61
2022/03/05 08:20:36;;;;;;;15.73;9.35;;;;;;;1.62;42.23;95826.50;4990868;28;20455;-55
2022/03/05 08:23:01;;;;;;;16.83;10.10;;;;;;;1.57;41.46;95835.66;4986583;28;20099;-56
2022/03/05 08:25:27;;;;;;;17.23;10.05;;;;;;;1.68;42.46;95832.22;5000650;28;20536;-57
2022/03/05 08:27:52;;;;;;;19.90;10.13;;;;;;;1.84;41.98;95832.72;5024291;28;20196;-58
2022/03/05 08:30:18;;;;;;;15.95;9.65;;;;;;;2.00;40.86;95831.53;5039796;28;20089;-59
2022/03/05 08:32:43;;;;;;;17.83;9.00;;;;;;;2.17;42.12;95832.03;5038135;28;20078;-57
2022/03/05 08:35:09;;;;;;;15.27;9.23;;;;;;;2.24;40.64;95833.19;5039734;28;20171;-58
2022/03/05 08:37:35;;;;;;;19.85;9.20;;;;;;;2.49;41.34;95832.09;5018931;28;20086;-60
2022/03/05 08:40:01;;;;;;;16.80;8.93;;;;;;;2.62;41.04;95826.69;5001610;28;20102;-60
2022/03/05 08:42:26;;;;;;;13.60;8.52;;;;;;;2.66;40.81;95827.31;4986774;28;20082;-60
2022/03/05 08:44:51;;;;;;;15.38;8.90;;;;;;;2.99;39.82;95829.97;4999902;28;20090;-59
2022/03/05 08:47:17;;;;;;;13.55;8.60;;;;;;;2.88;38.30;95828.19;5007589;28;20105;-60
2022/03/05 08:49:42;;;;;;;19.15;11.20;;;;;;;2.84;37.57;95835.50;5015200;28;20078;-59
2022/03/05 08:52:08;;;;;;;14.82;8.68;;;;;;;3.12;39.50;95830.63;5008546;28;20106;-59
2022/03/05 08:54:34;;;;;;;16.00;9.38;;;;;;;2.97;38.56;95829.25;5016986;28;20433;-60
2022/03/05 08:56:59;;;;;;;17.38;9.95;;;;;;;3.07;38.15;95831.97;5017692;28;20094;-57
2022/03/05 08:59:25;;;;;;;18.30;9.13;;;;;;;3.27;39.21;95831.16;5017418;28;20114;-60
2022/03/05 09:01:50;;;;;;;18.13;11.45;;;;;;;2.99;36.84;95837.88;5015057;28;20328;-60
2022/03/05 09:04:15;;;;;;;22.40;12.15;;;;;;;3.04;37.04;95835.69;5001011;28;20121;-60
2022/03/05 09:06:41;;;;;;;18.85;11.23;;;;;;;3.00;37.43;95834.28;4992699;28;20098;-60
2022/03/05 09:09:07;;;;;;;17.35;9.55;;;;;;;3.24;38.79;95841.09;4993409;28;20082;-59
2022/03/05 09:11:34;;;;;;;18.85;10.70;;;;;;;3.09;38.84;95840.59;5010876;28;20580;-59
2022/03/05 09:13:59;;;;;;;14.05;8.63;;;;;;;3.49;38.70;95837.31;5006485;28;20154;-61
2022/03/05 09:16:25;;;;;;;15.38;9.55;;;;;;;3.55;38.44;95838.59;5029226;28;20691;-60
2022/03/05 09:18:51;;;;;;;15.13;9.65;;;;;;;3.77;36.31;95836.78;5004322;28;20642;-56
2022/03/05 09:21:16;;;;;;;17.42;9.63;;;;;;;3.97;35.77;95842.16;4994063;28;20086;-56
2022/03/05 09:23:41;;;;;;;18.60;10.45;;;;;;;3.91;37.04;95841.72;4996400;28;20126;-59
2022/03/05 09:26:07;;;;;;;19.00;11.13;;;;;;;3.89;36.06;95840.19;5013108;28;20086;-60
2022/03/05 09:28:32;;;;;;;15.27;9.00;;;;;;;4.27;35.16;95835.22;5005445;28;20591;-60
2022/03/05 09:30:58;;;;;;;17.85;10.23;;;;;;;4.57;35.83;95833.53;5023582;28;20871;-61
2022/03/05 09:33:25;;;;;;;17.65;11.05;;;;;;;4.52;32.86;95830.47;5012679;28;20764;-60
2022/03/05 09:35:50;;;;;;;19.15;11.35;;;;;;;4.42;36.57;95831.25;5004684;28;20184;-60
2022/03/05 09:38:16;;;;;;;20.13;11.27;;;;;;;4.67;34.91;95838.81;5014983;28;20101;-59
2022/03/05 09:40:42;;;;;;;20.48;11.15;;;;;;;4.66;35.49;95837.97;5007970;28;20136;-58
2022/03/05 09:43:07;;;;;;;20.10;11.77;;;;;;;5.00;33.75;95839.41;5017919;28;20150;-60
2022/03/05 09:45:33;;;;;;;20.58;12.68;;;;;;;5.06;34.50;95835.44;5004846;28;20171;-59
2022/03/05 09:47:58;;;;;;;18.35;12.50;;;;;;;5.06;34.40;95838.91;5030745;28;20104;-58
2022/03/05 09:50:25;;;;;;;22.55;13.00;;;;;;;5.20;35.61;95834.19;4998779;28;20078;-60
2022/03/05 09:52:50;;;;;;;22.05;13.13;;;;;;;5.53;33.47;95841.81;5009588;28;20624;-60
2022/03/05 09:55:16;;;;;;;18.48;12.93;;;;;;;5.57;33.23;95836.13;5008932;28;20114;-58
2022/03/05 09:57:42;;;;;;;22.10;13.40;;;;;;;5.86;34.57;95835.22;5018730;28;20176;-61
2022/03/05 10:00:07;;;;;;;24.77;14.75;;;;;;;5.93;33.77;95832.84;5009960;28;20117;-59
2022/03/05 10:02:33;;;;;;;27.88;15.23;;;;;;;5.78;32.72;95832.47;5029416;28;20102;-60
2022/03/05 10:05:28;;;;;;;22.95;14.25;;;;;;;6.10;32.26;95827.78;4995104;28;20383;-71
2022/03/05 10:08:08;;;;;;;26.30;17.42;;;;;;;6.17;32.90;95830.69;4996752;28;20114;-68
2022/03/05 10:10:45;;;;;;;25.98;16.42;;;;;;;6.33;32.16;95832.72;5002306;28;20126;-73
2022/03/05 10:13:40;;;;;;;25.48;16.83;;;;;;;6.35;32.13;95831.59;5018693;28;20076;-70
2022/03/05 10:16:07;;;;;;;24.52;15.88;;;;;;;6.52;32.10;95834.47;5033810;28;20200;-69
2022/03/05 10:18:36;;;;;;;22.95;15.05;;;;;;;6.43;30.67;95833.50;5033337;28;20608;-70
2022/03/05 10:21:04;;;;;;;25.17;16.52;;;;;;;6.73;31.82;95830.72;5034043;28;20109;-67
2022/03/05 10:23:37;;;;;;;21.23;14.90;;;;;;;6.63;31.84;95828.97;5039958;28;20593;-67
2022/03/05 10:26:07;;;;;;;22.45;15.30;;;;;;;6.43;31.74;95828.19;5040393;28;20622;-68
2022/03/05 10:28:33;;;;;;;27.15;17.10;;;;;;;6.62;31.55;95829.13;5041708;28;20562;-70
2022/03/05 10:31:04;;;;;;;28.20;19.08;;;;;;;6.95;29.72;95829.50;5041809;28;20093;-71
2022/03/05 10:33:31;;;;;;;29.77;20.15;;;;;;;6.96;30.42;95832.94;5040315;28;20645;-72
2022/03/05 10:35:58;;;;;;;31.17;19.23;;;;;;;6.89;31.70;95825.63;5041161;28;20112;-70
2022/03/05 10:38:25;;;;;;;28.75;18.85;;;;;;;7.25;31.14;95823.97;5034903;28;20082;-68
2022/03/05 10:40:55;;;;;;;25.92;17.88;;;;;;;7.24;29.47;95825.78;5024389;28;20073;-70
2022/03/05 10:43:20;;;;;;;22.52;15.63;;;;;;;7.40;27.54;95827.75;5041280;28;20102;-70
2022/03/05 10:45:53;;;;;;;22.20;16.10;;;;;;;7.27;31.04;95828.13;5041767;28;20080;-71
2022/03/05 10:48:28;;;;;;;27.00;17.98;;;;;;;7.40;30.76;95829.56;5037715;28;20424;-69
2022/03/05 10:51:04;;;;;;;19.70;12.90;;;;;;;5.97;27.57;95830.75;5041477;28;20474;-68
2022/03/05 10:53:36;;;;;;;25.50;17.20;;;;;;;6.92;31.78;95828.94;5024965;28;20088;-72
2022/03/05 10:56:20;;;;;;;25.20;17.48;;;;;;;7.35;30.87;95830.00;5040681;28;20491;-72
2022/03/05 10:58:56;;;;;;;22.38;15.80;;;;;;;7.73;28.81;95821.88;5041247;28;20101;-72
2022/03/05 11:01:21;;;;;;;20.55;13.98;;;;;;;7.64;28.84;95817.47;5024531;28;20098;-68
2022/03/05 11:03:49;;;;;;;18.55;12.90;;;;;;;7.62;28.31;95819.47;5033649;28;20116;-71
2022/03/05 11:06:15;;;;;;;18.27;12.00;;;;;;;7.83;27.26;95820.97;5022564;28;20168;-72
2022/03/05 11:08:40;;;;;;;20.17;13.98;;;;;;;8.10;27.04;95813.84;4993343;28;20635;-72
2022/03/05 11:11:05;;;;;;;11.88;7.85;;;;;;;7.11;22.50;95817.41;4997241;28;20101;-69
2022/03/05 11:13:31;;;;;;;23.63;14.55;;;;;;;7.58;26.02;95818.94;4999554;28;20074;-68
2022/03/05 11:15:56;;;;;;;19.13;12.30;;;;;;;7.84;27.79;95815.50;5003471;28;20533;-71
2022/03/05 11:18:22;;;;;;;23.67;16.45;;;;;;;8.04;26.26;95808.19;5005203;28;20070;-69
2022/03/05 11:20:48;;;;;;;19.30;13.60;;;;;;;8.32;28.22;95815.09;5004091;28;20078;-71
2022/03/05 11:23:13;;;;;;;18.58;13.63;;;;;;;8.66;27.25;95808.94;5003990;28;20608;-70